United StatesFixed distance
Flagstaff Sky Peaks 50 Miles Mountain Run
22 Sep2012
Distance
50mi
Finishers
2215 men7 women
Winning time
8:41:03h
Pace distribution
22 finishers · 5.15–9.27 km/h
5.15 km/hmedian 6.019.27 km/h
Results
Ranks 1–22 of 22
| Rank | Runner | Time | Pace | Cat. | Placing |
|---|---|---|---|---|---|
| 1 | *Tempe, AZ | 8:41:03h | 9.27 | M23 | 1st M · 1st M23 |
| 2 | *Glendale, AZ | 10:27:25h | 7.70 | M35 | 2nd M · 1st M35 |
| 3 | *Prescott, AZ | 10:33:51h | 7.62 | W23 | 1st F · 1st W23 |
| 4 | *Flagstaff, AZ | 11:06:05h | 7.25 | M35 | 3rd M · 2nd M35 |
| 5 | *Scottsdale, AZ | 11:15:00h | 7.15 | M50 | 4th M · 1st M50 |
| 6 | *Phoenix, AZ | 11:15:21h | 7.15 | M35 | 5th M · 3rd M35 |
| 7 | *Silverado, CA | 11:31:02h | 6.99 | M23 | 6th M · 2nd M23 |
| 8 | *La Crescenta, CA | 11:31:02h | 6.99 | W40 | 2nd F · 1st W40 |
| 9 | *Tucson, AZ | 11:32:44h | 6.97 | M23 | 7th M · 3rd M23 |
| 10 | *Phoenix, AZ | 11:46:39h | 6.83 | M23 | 8th M · 4th M23 |
| 11 | *Flagstaff, AZ | 12:12:11h | 6.59 | W35 | 3rd F · 1st W35 |
| 12 | *Sedona, AZ | 13:22:53h | 6.01 | M35 | 9th M · 4th M35 |
| 13 | *Flagstaff, AZ | 14:11:38h | 5.67 | W45 | 4th F · 1st W45 |
| 14 | *Chandler, AZ | 14:21:00h | 5.61 | M50 | 10th M · 2nd M50 |
| 15 | *Polacca, AZ | 14:22:00h | 5.60 | M35 | 11th M · 5th M35 |
| 16 | *Scottsdale, AZ | 14:26:15h | 5.57 | W40 | 5th F · 2nd W40 |
| 17 | *Cottonwood, AZ | 14:49:19h | 5.43 | W23 | 6th F · 2nd W23 |
| 18 | *Tucson, AZ | 14:49:19h | 5.43 | W23 | 6th F · 2nd W23 |
| 19 | *Dewey, AZ | 14:49:19h | 5.43 | M50 | 12th M · 3rd M50 |
| 20 | *Mesa, AZ | 14:55:01h | 5.39 | M55 | 13th M · 1st M55 |
| 21 | *Tucson, AZ | 15:18:49h | 5.25 | M40 | 14th M · 1st M40 |
| 22 | *San Tan Valley, AZ | 15:37:41h | 5.15 | M23 | 15th M · 5th M23 |
- 1*Tempe, AZ1st M · 1st M23Time8:41:03hPace9.27Cat.M23
- 2*Glendale, AZ2nd M · 1st M35Time10:27:25hPace7.70Cat.M35
- 3*Prescott, AZ1st F · 1st W23Time10:33:51hPace7.62Cat.W23
- 4*Flagstaff, AZ3rd M · 2nd M35Time11:06:05hPace7.25Cat.M35
- 5*Scottsdale, AZ4th M · 1st M50Time11:15:00hPace7.15Cat.M50
- 6*Phoenix, AZ5th M · 3rd M35Time11:15:21hPace7.15Cat.M35
- 7*Silverado, CA6th M · 2nd M23Time11:31:02hPace6.99Cat.M23
- 8*La Crescenta, CA2nd F · 1st W40Time11:31:02hPace6.99Cat.W40
- 9*Tucson, AZ7th M · 3rd M23Time11:32:44hPace6.97Cat.M23
- 10*Phoenix, AZ8th M · 4th M23Time11:46:39hPace6.83Cat.M23
- 11*Flagstaff, AZ3rd F · 1st W35Time12:12:11hPace6.59Cat.W35
- 12*Sedona, AZ9th M · 4th M35Time13:22:53hPace6.01Cat.M35
- 13*Flagstaff, AZ4th F · 1st W45Time14:11:38hPace5.67Cat.W45
- 14*Chandler, AZ10th M · 2nd M50Time14:21:00hPace5.61Cat.M50
- 15*Polacca, AZ11th M · 5th M35Time14:22:00hPace5.60Cat.M35
- 16*Scottsdale, AZ5th F · 2nd W40Time14:26:15hPace5.57Cat.W40
- 17*Cottonwood, AZ6th F · 2nd W23Time14:49:19hPace5.43Cat.W23
- 18*Tucson, AZ6th F · 2nd W23Time14:49:19hPace5.43Cat.W23
- 19*Dewey, AZ12th M · 3rd M50Time14:49:19hPace5.43Cat.M50
- 20*Mesa, AZ13th M · 1st M55Time14:55:01hPace5.39Cat.M55
- 21*Tucson, AZ14th M · 1st M40Time15:18:49hPace5.25Cat.M40
- 22*San Tan Valley, AZ15th M · 5th M23Time15:37:41hPace5.15Cat.M23